»·PEaware :: DAL1948 KSLC-KBOI

DAL1948 :: KSLC-KBOI

FLIGHT INFORMATION

Flight Status: Arrived
Operator:
Delta Air Lines
More flights by this operator :: More flights under this callsign
Pilot: Joe P. (13940)
Aircraft: MCDONNELL-DOUGLAS MD-82
(MD82)
More flights by this aircraft type
Origin: KSLC Salt Lake City Intl
United States
Destination: KBOI Boise Air Terminal/Gowen
United States
More flights between these airports :: More routes between these airports
Route: CGULL1 TWF DCT BROPH SPUUD3
File this flight plan on PilotEdge
Remarks: SEL / ABCD KPIH -PBN / B3B4B5D3D4 DOF / 180707 REG / N904DL
Altitude:
(Current/Filed)
280ft
Speed:
(Current/Filed)
477kts
Departed: 13-Jul-18 06:20 AM
Arrived: 13-Jul-18 07:14 AM
Distance/Time
Traveled:
252nm/0:54
Distance/Time
To Go:
Arrived

Flight Plot

Page will automatically refresh every two minutes.

Flight plan parsing failed; only flown route is shown


Map Options




Map Legend


Flown Route
Filed Route
Departure Airport
Arrival Airport
Navaid (VOR, NDB)
Fix

Horizontal Profiles

Position Reports

Time Latitude Longitude Heading Altitude Ground
Speed
13-Jul-18 06:06 40.785586 -111.978056 231 4236ft 0kts
13-Jul-18 06:07 40.785586 -111.978056 231 4236ft 0kts
13-Jul-18 06:08 40.785586 -111.978056 231 4236ft 0kts
13-Jul-18 06:09 40.785678 -111.977902 233 4236ft 2kts
13-Jul-18 06:10 40.785880 -111.976911 279 4236ft 2kts
13-Jul-18 06:11 40.785788 -111.976519 295 4236ft 0kts
13-Jul-18 06:12 40.785789 -111.976523 295 4236ft 0kts
13-Jul-18 06:13 40.785799 -111.976549 295 4236ft 0kts
13-Jul-18 06:14 40.786349 -111.976804 358 4236ft 4kts
13-Jul-18 06:15 40.788498 -111.976984 354 4236ft 11kts
13-Jul-18 06:16 40.792227 -111.977420 354 4236ft 15kts
13-Jul-18 06:17 40.796679 -111.977708 344 4236ft 15kts
13-Jul-18 06:18 40.801431 -111.978481 354 4236ft 18kts
13-Jul-18 06:19 40.805929 -111.978981 355 4236ft 12kts
13-Jul-18 06:20 40.807593 -111.978168 84 4236ft 9kts
13-Jul-18 06:21 40.805973 -111.976735 176 4236ft 44kts
13-Jul-18 06:22 40.767668 -111.971944 172 5753ft 178kts
13-Jul-18 06:23 40.720593 -111.949821 108 7781ft 233kts
13-Jul-18 06:24 40.763878 -111.885628 358 9567ft 291kts
13-Jul-18 06:25 40.812996 -111.965062 270 11360ft 332kts
13-Jul-18 06:26 40.843198 -112.079915 309 14289ft 349kts
13-Jul-18 06:27 40.911100 -112.175454 310 17050ft 362kts
13-Jul-18 06:28 40.977089 -112.279208 308 19563ft 375kts
13-Jul-18 06:29 41.045736 -112.386711 309 21857ft 388kts
13-Jul-18 06:30 41.130821 -112.479266 325 23954ft 403kts
13-Jul-18 06:31 41.225024 -112.562917 321 25890ft 412kts
13-Jul-18 06:32 41.311986 -112.663090 311 27529ft 418kts
13-Jul-18 06:33 41.389256 -112.781608 310 28235ft 423kts
13-Jul-18 06:34 41.467110 -112.899002 309 28233ft 423kts
13-Jul-18 06:35 41.544253 -113.017550 309 28232ft 423kts
13-Jul-18 06:36 41.621609 -113.136668 309 28237ft 423kts
13-Jul-18 06:37 41.698668 -113.255666 309 28238ft 423kts
13-Jul-18 06:38 41.776006 -113.375073 310 28237ft 423kts
13-Jul-18 06:39 41.853007 -113.494258 309 28239ft 423kts
13-Jul-18 06:40 41.929557 -113.613990 309 28240ft 422kts
13-Jul-18 06:41 42.006120 -113.734123 309 28241ft 422kts
13-Jul-18 06:42 42.082259 -113.854161 309 28237ft 422kts
13-Jul-18 06:43 42.158274 -113.974526 309 28237ft 422kts
13-Jul-18 06:44 42.234671 -114.095237 309 28240ft 422kts
13-Jul-18 06:45 42.310624 -114.215994 309 28239ft 422kts
13-Jul-18 06:46 42.386588 -114.336777 309 28239ft 422kts
13-Jul-18 06:47 42.462454 -114.457996 309 28238ft 421kts
13-Jul-18 06:48 42.538057 -114.578943 309 28239ft 421kts
13-Jul-18 06:49 42.614059 -114.700172 309 28242ft 420kts
13-Jul-18 06:50 42.689535 -114.821298 309 28241ft 420kts
13-Jul-18 06:51 42.767543 -114.939716 312 28249ft 421kts
13-Jul-18 06:52 42.847806 -115.054032 312 26741ft 408kts
13-Jul-18 06:53 42.923709 -115.162829 313 24067ft 386kts
13-Jul-18 06:54 42.994612 -115.266593 312 21776ft 363kts
13-Jul-18 06:55 43.065129 -115.369105 312 19525ft 370kts
13-Jul-18 06:56 43.134218 -115.470183 312 17168ft 358kts
13-Jul-18 06:57 43.199933 -115.566357 311 15149ft 326kts
13-Jul-18 06:58 43.257353 -115.650318 311 14819ft 306kts
13-Jul-18 06:59 43.302687 -115.747795 294 13689ft 297kts
13-Jul-18 07:00 43.337950 -115.845963 296 12057ft 279kts
13-Jul-18 07:01 43.374749 -115.944333 296 10578ft 280kts
13-Jul-18 07:02 43.408766 -116.036733 297 9593ft 276kts
13-Jul-18 07:03 43.443515 -116.130333 297 8183ft 272kts
13-Jul-18 07:04 43.476994 -116.222585 294 7051ft 262kts
13-Jul-18 07:05 43.502375 -116.297949 295 6990ft 260kts
13-Jul-18 07:06 43.534371 -116.387761 297 6987ft 260kts
13-Jul-18 07:07 43.567028 -116.476527 297 6982ft 259kts
13-Jul-18 07:08 43.609353 -116.544270 1 6980ft 235kts
13-Jul-18 07:09 43.672305 -116.512683 50 5106ft 237kts
13-Jul-18 07:10 43.651412 -116.452812 165 5003ft 211kts
13-Jul-18 07:11 43.623245 -116.415385 93 5002ft 196kts
13-Jul-18 07:12 43.618579 -116.376971 112 4986ft 193kts
13-Jul-18 07:13 43.595155 -116.316807 113 4027ft 159kts
13-Jul-18 07:14 43.577002 -116.263127 116 3226ft 152kts
13-Jul-18 07:15 43.564201 -116.224732 87 2843ft 17kts
13-Jul-18 07:16 43.566754 -116.223696 88 2843ft 7kts
13-Jul-18 07:17 43.566622 -116.222947 107 2843ft 0kts
13-Jul-18 07:18 43.566253 -116.221735 111 2843ft 8kts
13-Jul-18 07:19 43.566026 -116.218170 33 2843ft 8kts
13-Jul-18 07:20 43.568047 -116.219516 234 2843ft 3kts
13-Jul-18 07:21 43.567936 -116.219636 215 2843ft 0kts
13-Jul-18 07:22 43.567936 -116.219636 215 2843ft 0kts
13-Jul-18 07:23 43.567936 -116.219636 215 2843ft 0kts
13-Jul-18 07:24 43.567936 -116.219636 215 2843ft 0kts
13-Jul-18 07:25 43.567936 -116.219636 215 2843ft 0kts
13-Jul-18 07:26 43.567936 -116.219636 215 2843ft 0kts
13-Jul-18 07:27 43.567936 -116.219636 215 2843ft 0kts
13-Jul-18 07:28 43.567936 -116.219636 215 2843ft 0kts
13-Jul-18 07:29 43.567936 -116.219636 215 2843ft 0kts

Navigation Log

Ident Type
Flight plan parsing failed, navigation log unavailable